createdAt,value
2022-11-14T00:00:56.598Z,34.70
2022-11-14T00:03:18.100Z,29.27
2022-11-14T00:05:41.310Z,29.40
2022-11-14T00:08:02.507Z,27.20
2022-11-14T00:10:23.762Z,28.17
2022-11-14T00:12:44.806Z,26.37
2022-11-14T00:15:06.321Z,27.83
2022-11-14T00:17:27.389Z,27.40
2022-11-14T00:19:48.595Z,27.20
2022-11-14T00:22:11.524Z,28.50
2022-11-14T00:24:32.622Z,26.63
2022-11-14T00:26:54.016Z,26.23
2022-11-14T00:29:16.215Z,31.90
2022-11-14T00:31:37.261Z,28.00
2022-11-14T00:33:58.663Z,31.00
2022-11-14T00:36:19.928Z,30.80
2022-11-14T00:38:42.861Z,32.67
2022-11-14T00:41:04.399Z,29.67
2022-11-14T00:43:25.390Z,29.03
2022-11-14T00:45:47.246Z,32.03
2022-11-14T00:48:08.399Z,37.03
2022-11-14T00:50:29.831Z,55.50
2022-11-14T00:52:51.086Z,34.93
2022-11-14T00:55:13.823Z,29.53
2022-11-14T00:57:34.942Z,39.10
2022-11-14T00:59:56.565Z,49.93
2022-11-14T01:02:18.180Z,42.30
2022-11-14T01:04:39.814Z,76.63
2022-11-14T01:07:00.981Z,52.57
2022-11-14T01:09:22.899Z,49.57
2022-11-14T01:11:45.622Z,43.30
2022-11-14T01:14:07.577Z,51.47
2022-11-14T01:16:28.824Z,39.70
2022-11-14T01:18:50.209Z,33.60
2022-11-14T01:21:14.058Z,35.47
2022-11-14T01:23:35.322Z,29.87
2022-11-14T01:26:02.141Z,32.33
2022-11-14T01:28:25.182Z,72.37
2022-11-14T01:30:46.359Z,39.53
2022-11-14T01:33:07.802Z,26.33
2022-11-14T01:35:29.082Z,44.77
2022-11-14T01:37:50.049Z,52.30
2022-11-14T01:40:12.178Z,36.17
2022-11-14T01:42:33.565Z,38.23
2022-11-14T01:44:56.253Z,37.93
2022-11-14T01:47:19.988Z,57.83
2022-11-14T01:49:42.526Z,90.90
2022-11-14T01:52:05.442Z,45.67
2022-11-14T01:54:27.962Z,61.83
2022-11-14T01:56:50.644Z,116.67
2022-11-14T01:59:13.443Z,51.33
2022-11-14T02:01:39.501Z,87.07
2022-11-14T02:04:02.623Z,79.37
2022-11-14T02:06:26.986Z,77.50
2022-11-14T02:08:49.420Z,95.57
2022-11-14T02:11:11.220Z,79.00
2022-11-14T02:13:32.475Z,80.73
2022-11-14T02:15:53.657Z,73.70
2022-11-14T02:18:16.471Z,87.23
2022-11-14T02:20:43.155Z,92.17
2022-11-14T02:23:04.538Z,86.00
2022-11-14T02:25:26.127Z,109.17
2022-11-14T02:27:47.226Z,73.70
2022-11-14T02:30:10.695Z,57.20
2022-11-14T02:32:45.014Z,79.20
2022-11-14T02:35:12.858Z,97.17
2022-11-14T02:37:35.627Z,114.30
2022-11-14T02:39:56.921Z,64.40
2022-11-14T02:42:18.420Z,58.87
2022-11-14T02:44:39.954Z,33.10
2022-11-14T02:47:00.997Z,70.67
2022-11-14T02:49:22.253Z,49.97
2022-11-14T02:51:43.615Z,37.50
2022-11-14T02:54:06.401Z,64.23
2022-11-14T02:56:28.226Z,81.97
2022-11-14T02:58:49.928Z,21.97
2022-11-14T03:01:20.179Z,79.83
2022-11-14T03:03:41.566Z,41.27
2022-11-14T03:06:03.980Z,40.63
2022-11-14T03:08:25.183Z,29.03
2022-11-14T03:10:47.607Z,86.40
2022-11-14T03:13:09.057Z,91.10
2022-11-14T03:15:30.214Z,113.10
2022-11-14T03:17:51.663Z,40.67
2022-11-14T03:20:13.122Z,128.13
2022-11-14T03:22:34.078Z,99.90
2022-11-14T03:24:55.600Z,47.77
2022-11-14T03:27:18.256Z,64.23
2022-11-14T03:29:39.519Z,72.33
2022-11-14T03:32:00.639Z,53.70
2022-11-14T03:34:22.071Z,53.90
2022-11-14T03:36:44.070Z,35.23
2022-11-14T03:39:05.747Z,44.30
2022-11-14T03:41:26.796Z,64.67
2022-11-14T03:43:49.573Z,46.13
2022-11-14T03:46:10.647Z,95.07
2022-11-14T03:48:32.800Z,133.87
2022-11-14T03:50:54.613Z,163.27
2022-11-14T03:53:15.579Z,75.77
2022-11-14T03:55:36.765Z,62.30
2022-11-14T03:57:58.476Z,58.77
2022-11-14T04:00:21.544Z,17.90
2022-11-14T04:02:42.689Z,19.83
2022-11-14T04:05:04.050Z,23.47
2022-11-14T04:07:25.617Z,17.50
2022-11-14T04:09:47.287Z,19.30
2022-11-14T04:12:12.823Z,19.93
2022-11-14T04:14:36.747Z,48.47
2022-11-14T04:16:59.915Z,18.77
2022-11-14T04:19:21.055Z,33.47
2022-11-14T04:21:42.405Z,47.83
2022-11-14T04:24:07.168Z,27.37
2022-11-14T04:26:31.990Z,43.77
2022-11-14T04:28:53.310Z,36.67
2022-11-14T04:31:14.430Z,43.87
2022-11-14T04:33:37.090Z,18.17
2022-11-14T04:35:58.372Z,23.53
2022-11-14T04:38:19.685Z,35.20
2022-11-14T04:40:41.096Z,25.07
2022-11-14T04:43:02.544Z,33.70
2022-11-14T04:45:23.618Z,25.77
2022-11-14T04:47:44.944Z,23.67
2022-11-14T04:50:08.219Z,29.87
2022-11-14T04:52:29.639Z,21.67
2022-11-14T04:54:51.170Z,70.70
2022-11-14T04:57:12.777Z,19.43
2022-11-14T04:59:33.875Z,18.03
2022-11-14T05:01:55.434Z,18.57
2022-11-14T05:04:16.956Z,19.87
2022-11-14T05:06:39.558Z,16.87
2022-11-14T05:09:00.675Z,21.17
2022-11-14T05:11:25.317Z,18.67
2022-11-14T05:13:49.870Z,17.90
2022-11-14T05:16:11.628Z,17.97
2022-11-14T05:18:32.980Z,22.67
2022-11-14T05:20:54.367Z,17.93
2022-11-14T05:23:20.450Z,17.13
2022-11-14T05:25:41.735Z,23.10
2022-11-14T05:28:02.936Z,52.63
2022-11-14T05:30:24.123Z,111.93
2022-11-14T05:32:45.762Z,39.27
2022-11-14T05:35:07.723Z,41.07
2022-11-14T05:37:28.973Z,31.37
2022-11-14T05:39:51.712Z,20.47
2022-11-14T05:42:12.932Z,28.60
2022-11-14T05:44:34.166Z,119.70
2022-11-14T05:46:55.715Z,50.83
2022-11-14T05:49:21.752Z,36.40
2022-11-14T05:51:43.231Z,68.83
2022-11-14T05:54:04.612Z,38.40
2022-11-14T05:56:26.979Z,137.07
2022-11-14T05:58:48.355Z,26.97
2022-11-14T06:01:11.137Z,93.47
2022-11-14T06:03:33.223Z,36.80
2022-11-14T06:05:54.570Z,28.20
2022-11-14T06:08:15.828Z,103.73
2022-11-14T06:10:37.381Z,87.40
2022-11-14T06:13:00.090Z,29.90
2022-11-14T06:15:22.019Z,45.57
2022-11-14T06:17:43.574Z,70.00
2022-11-14T06:20:05.298Z,42.87
2022-11-14T06:22:27.001Z,45.87
2022-11-14T06:24:48.303Z,64.87
2022-11-14T06:27:09.501Z,27.07
2022-11-14T06:29:35.469Z,22.67
2022-11-14T06:31:57.253Z,63.07
2022-11-14T06:34:18.591Z,44.07
2022-11-14T06:36:40.374Z,56.57
2022-11-14T06:39:01.586Z,138.97
2022-11-14T06:41:24.141Z,27.37
2022-11-14T06:43:45.686Z,35.53
2022-11-14T06:46:08.983Z,80.37
2022-11-14T06:48:30.688Z,43.37
2022-11-14T06:50:53.308Z,65.33
2022-11-14T06:53:14.615Z,39.57
2022-11-14T06:55:36.513Z,24.33
2022-11-14T06:57:58.031Z,51.37
2022-11-14T07:00:19.543Z,23.77
2022-11-14T07:02:46.760Z,151.43
2022-11-14T07:05:08.289Z,29.93
2022-11-14T07:07:29.558Z,38.30
2022-11-14T07:09:50.939Z,23.27
2022-11-14T07:12:12.139Z,28.70
2022-11-14T07:14:33.424Z,34.70
2022-11-14T07:16:54.739Z,28.73
2022-11-14T07:19:17.326Z,20.47
2022-11-14T07:21:38.787Z,45.20
2022-11-14T07:23:59.701Z,26.23
2022-11-14T07:26:20.891Z,23.00
2022-11-14T07:28:42.882Z,58.57
2022-11-14T07:31:04.246Z,57.70
2022-11-14T07:33:25.448Z,38.10
2022-11-14T07:35:48.074Z,24.00
2022-11-14T07:38:09.134Z,22.73
2022-11-14T07:40:30.499Z,19.23
2022-11-14T07:42:52.322Z,20.87
2022-11-14T07:45:14.119Z,33.33
2022-11-14T07:47:35.365Z,25.37
2022-11-14T07:49:56.684Z,17.83
2022-11-14T07:52:19.078Z,16.63
2022-11-14T07:54:39.979Z,20.00
2022-11-14T07:57:01.620Z,18.17
2022-11-14T07:59:23.138Z,16.97
2022-11-14T08:01:44.175Z,20.87
2022-11-14T08:04:05.639Z,17.50
2022-11-14T08:06:28.576Z,16.67
2022-11-14T08:08:51.084Z,17.03
2022-11-14T08:11:12.755Z,16.93
2022-11-14T08:13:34.235Z,16.57
2022-11-14T08:15:55.642Z,16.83
2022-11-14T08:18:17.230Z,18.07
2022-11-14T08:20:38.555Z,15.53
2022-11-14T08:23:03.741Z,15.87
2022-11-14T08:25:27.033Z,16.50
2022-11-14T08:27:48.452Z,16.07
2022-11-14T08:30:10.672Z,17.53
2022-11-14T08:32:32.643Z,15.80
2022-11-14T08:34:53.768Z,16.10
2022-11-14T08:37:15.359Z,18.50
2022-11-14T08:39:36.479Z,17.03
2022-11-14T08:41:59.348Z,18.90
2022-11-14T08:44:20.633Z,23.57
2022-11-14T08:46:41.777Z,19.10
2022-11-14T08:49:03.027Z,21.00
2022-11-14T08:51:24.323Z,21.60
2022-11-14T08:53:45.577Z,23.07
2022-11-14T08:56:07.074Z,23.37
2022-11-14T08:58:33.501Z,48.43
2022-11-14T09:00:55.171Z,25.73
2022-11-14T09:03:16.863Z,24.47
2022-11-14T09:05:38.146Z,26.63
2022-11-14T09:07:59.653Z,30.43
2022-11-14T09:10:21.093Z,91.97
2022-11-14T09:12:42.412Z,58.87
2022-11-14T09:15:05.690Z,48.40
2022-11-14T09:17:27.162Z,80.73
2022-11-14T09:19:48.429Z,50.23
2022-11-14T09:22:09.494Z,31.63
2022-11-14T09:24:30.714Z,28.20
2022-11-14T09:26:56.641Z,22.57
2022-11-14T09:29:19.012Z,26.87
2022-11-14T09:31:41.769Z,22.57
2022-11-14T09:34:03.280Z,23.20
2022-11-14T09:36:24.489Z,21.33
2022-11-14T09:38:45.873Z,30.77
2022-11-14T09:41:18.854Z,23.37
2022-11-14T09:43:46.073Z,27.70
2022-11-14T09:46:17.085Z,60.17
2022-11-14T09:48:39.558Z,47.03
2022-11-14T09:51:07.208Z,47.33
2022-11-14T09:53:32.453Z,45.07
2022-11-14T09:55:53.749Z,38.83
2022-11-14T09:58:19.519Z,54.90
2022-11-14T10:00:47.045Z,47.90
2022-11-14T10:03:13.955Z,40.43
2022-11-14T10:05:43.243Z,41.23
2022-11-14T10:08:13.478Z,59.17
2022-11-14T10:10:41.909Z,44.90
2022-11-14T10:13:09.816Z,40.33
2022-11-14T10:15:34.177Z,43.07
2022-11-14T10:18:01.172Z,45.73
2022-11-14T10:20:28.194Z,38.63
2022-11-14T10:23:01.553Z,37.97
2022-11-14T10:25:24.839Z,32.80
2022-11-14T10:27:55.878Z,37.17
2022-11-14T10:30:19.511Z,35.33
2022-11-14T10:32:52.239Z,37.93
2022-11-14T10:35:16.567Z,33.90
2022-11-14T10:37:38.865Z,76.67
2022-11-14T10:40:05.913Z,40.70
2022-11-14T10:42:31.611Z,33.57
2022-11-14T10:44:56.103Z,35.33
2022-11-14T10:47:19.447Z,32.77
2022-11-14T10:49:41.779Z,28.10
2022-11-14T10:52:04.837Z,21.10
2022-11-14T10:54:28.162Z,15.30
2022-11-14T10:56:51.745Z,16.67
2022-11-14T10:59:12.973Z,16.13
2022-11-14T11:01:39.601Z,16.37
2022-11-14T11:04:12.272Z,10.50
2022-11-14T11:06:34.224Z,9.30
2022-11-14T11:09:13.017Z,8.10
2022-11-14T11:11:34.135Z,3.97
2022-11-14T11:13:57.763Z,3.10
2022-11-14T11:16:20.897Z,2.57
2022-11-14T11:18:42.248Z,3.23
2022-11-14T11:21:05.458Z,2.30
2022-11-14T11:23:28.526Z,2.60
2022-11-14T11:25:59.405Z,7.87
2022-11-14T11:28:22.266Z,17.03
2022-11-14T11:30:56.411Z,31.73
2022-11-14T11:33:23.430Z,41.77
2022-11-14T11:35:45.641Z,37.37
2022-11-14T11:38:10.095Z,25.30
2022-11-14T11:40:34.527Z,7.30
2022-11-14T11:43:37.508Z,41.63
2022-11-14T11:45:42.331Z,6.57
2022-11-14T11:48:09.280Z,18.77
2022-11-14T11:50:31.147Z,5.63
2022-11-14T11:52:57.987Z,14.97
2022-11-14T11:55:21.671Z,7.57
2022-11-14T11:57:44.533Z,64.87
2022-11-14T12:00:08.155Z,3.87
2022-11-14T12:02:29.553Z,3.63
2022-11-14T12:04:52.920Z,4.00
2022-11-14T12:07:16.283Z,2.57
2022-11-14T12:10:08.643Z,3.60
2022-11-14T12:12:24.410Z,2.20
2022-11-14T12:14:52.149Z,2.70
2022-11-14T12:17:26.205Z,2.03
2022-11-14T12:20:05.169Z,3.40
2022-11-14T12:22:42.372Z,8.97
2022-11-14T12:25:16.713Z,2.00
2022-11-14T12:27:50.465Z,2.40
2022-11-14T12:30:13.552Z,2.37
2022-11-14T12:32:42.818Z,2.00
2022-11-14T12:35:06.760Z,3.90
2022-11-14T12:37:32.812Z,2.73
2022-11-14T12:39:59.749Z,3.13
2022-11-14T12:42:22.190Z,9.43
2022-11-14T12:44:43.220Z,3.37
2022-11-14T12:47:18.819Z,3.30
2022-11-14T12:49:57.814Z,2.10
2022-11-14T12:52:33.791Z,3.73
2022-11-14T12:54:55.367Z,1.80
2022-11-14T12:57:42.987Z,1.57
2022-11-14T13:00:05.657Z,2.77
2022-11-14T13:02:39.312Z,1.60
2022-11-14T13:05:12.757Z,5.10
2022-11-14T13:07:41.226Z,2.80
2022-11-14T13:10:13.128Z,3.00
2022-11-14T13:12:53.828Z,2.50
2022-11-14T13:15:49.240Z,2.70
2022-11-14T13:18:32.479Z,2.60
2022-11-14T13:21:19.839Z,2.13
2022-11-14T13:23:57.198Z,2.10
2022-11-14T13:26:51.959Z,3.10
2022-11-14T13:29:33.926Z,2.50
2022-11-14T13:31:56.818Z,2.63
2022-11-14T13:34:45.276Z,2.40
2022-11-14T13:37:12.183Z,3.10
2022-11-14T13:39:38.320Z,3.17
2022-11-14T13:42:09.504Z,2.50
2022-11-14T13:44:48.956Z,4.40
2022-11-14T13:47:20.291Z,2.57
2022-11-14T13:49:52.420Z,2.30
2022-11-14T13:52:13.994Z,4.33
2022-11-14T13:54:35.001Z,2.77
2022-11-14T13:57:01.113Z,3.43
2022-11-14T13:59:37.643Z,3.23
2022-11-14T14:02:09.131Z,2.67
2022-11-14T14:04:41.082Z,3.67
2022-11-14T14:07:08.661Z,2.90
2022-11-14T14:09:33.781Z,3.93
2022-11-14T14:12:00.079Z,3.13
2022-11-14T14:14:28.966Z,3.13
2022-11-14T14:16:54.695Z,3.27
2022-11-14T14:19:23.020Z,3.43
2022-11-14T14:21:50.671Z,3.97
2022-11-14T14:24:17.722Z,4.53
2022-11-14T14:26:45.572Z,3.77
2022-11-14T14:29:13.876Z,4.30
2022-11-14T14:31:37.042Z,5.47
2022-11-14T14:33:58.284Z,3.30
2022-11-14T14:36:20.738Z,3.57
2022-11-14T14:38:43.323Z,2.67
2022-11-14T14:41:04.396Z,2.43
2022-11-14T14:43:28.337Z,3.63
2022-11-14T14:45:52.638Z,2.33
2022-11-14T14:48:14.442Z,4.33
2022-11-14T14:50:38.260Z,2.43
2022-11-14T14:53:00.227Z,2.57
2022-11-14T14:55:23.863Z,2.40
2022-11-14T14:57:45.179Z,2.60
2022-11-14T15:00:08.181Z,2.30
2022-11-14T15:02:29.264Z,2.53
2022-11-14T15:04:50.560Z,2.60
2022-11-14T15:07:20.870Z,2.40
2022-11-14T15:09:52.061Z,3.27
2022-11-14T15:12:14.811Z,2.50
2022-11-14T15:14:38.290Z,2.40
2022-11-14T15:17:00.063Z,2.27
2022-11-14T15:19:22.703Z,2.03
2022-11-14T15:21:44.086Z,2.40
2022-11-14T15:24:14.259Z,2.40
2022-11-14T15:26:36.036Z,2.77
2022-11-14T15:29:07.842Z,2.53
2022-11-14T15:31:29.000Z,3.23
2022-11-14T15:34:02.041Z,2.50
2022-11-14T15:36:23.114Z,2.50
2022-11-14T15:38:59.476Z,2.27
2022-11-14T15:41:21.843Z,2.20
2022-11-14T15:43:50.521Z,4.30
2022-11-14T15:46:26.617Z,2.30
2022-11-14T15:48:49.138Z,2.27
2022-11-14T15:51:10.437Z,3.00
2022-11-14T15:53:33.181Z,2.43
2022-11-14T15:55:54.788Z,4.10
2022-11-14T15:58:32.166Z,2.47
2022-11-14T16:00:54.824Z,2.47
2022-11-14T16:03:17.960Z,3.10
2022-11-14T16:05:40.557Z,4.27
2022-11-14T16:08:02.216Z,2.40
2022-11-14T16:10:24.407Z,2.77
2022-11-14T16:12:50.981Z,3.43
2022-11-14T16:15:13.306Z,3.57
2022-11-14T16:17:36.063Z,2.63
2022-11-14T16:19:59.518Z,4.43
2022-11-14T16:22:22.194Z,2.87
2022-11-14T16:24:43.331Z,2.60
2022-11-14T16:27:04.679Z,3.50
2022-11-14T16:29:26.597Z,2.70
2022-11-14T16:31:48.506Z,2.70
2022-11-14T16:34:13.656Z,2.50
2022-11-14T16:36:34.790Z,2.50
2022-11-14T16:38:59.475Z,3.00
2022-11-14T16:41:20.836Z,4.17
2022-11-14T16:43:42.196Z,3.23
2022-11-14T16:46:04.337Z,2.80
2022-11-14T16:48:25.467Z,3.03
2022-11-14T16:50:46.652Z,3.70
2022-11-14T16:53:10.058Z,3.37
2022-11-14T16:55:32.774Z,5.03
2022-11-14T16:57:54.098Z,4.07
2022-11-14T17:00:15.433Z,3.50
2022-11-14T17:02:37.001Z,4.23
2022-11-14T17:04:58.698Z,3.10
2022-11-14T17:07:22.872Z,3.00
2022-11-14T17:09:44.457Z,3.13
2022-11-14T17:12:07.579Z,4.03
2022-11-14T17:14:28.793Z,3.17
2022-11-14T17:16:49.774Z,4.73
2022-11-14T17:19:11.042Z,3.33
2022-11-14T17:21:32.742Z,3.00
2022-11-14T17:23:57.387Z,3.40
2022-11-14T17:26:18.875Z,3.13
2022-11-14T17:28:43.152Z,2.63
2022-11-14T17:31:07.223Z,3.77
2022-11-14T17:33:28.957Z,3.33
2022-11-14T17:35:50.702Z,3.50
2022-11-14T17:38:12.300Z,3.07
2022-11-14T17:40:33.511Z,3.50
2022-11-14T17:42:54.681Z,4.57
2022-11-14T17:45:17.868Z,6.13
2022-11-14T17:47:39.252Z,4.90
2022-11-14T17:50:00.530Z,3.70
2022-11-14T17:52:22.477Z,3.80
2022-11-14T17:54:43.793Z,3.80
2022-11-14T17:57:04.935Z,3.53
2022-11-14T17:59:26.492Z,3.57
2022-11-14T18:01:49.305Z,4.47
2022-11-14T18:04:11.989Z,5.00
2022-11-14T18:06:34.343Z,3.47
2022-11-14T18:08:55.545Z,3.90
2022-11-14T18:11:18.785Z,8.27
2022-11-14T18:13:40.438Z,9.53
2022-11-14T18:16:02.229Z,4.80
2022-11-14T18:18:24.927Z,3.90
2022-11-14T18:20:47.007Z,4.37
2022-11-14T18:23:08.578Z,15.87
2022-11-14T18:25:29.838Z,19.13
2022-11-14T18:27:51.180Z,22.53
2022-11-14T18:30:39.833Z,8.67
2022-11-14T18:32:54.746Z,6.43
2022-11-14T18:35:17.598Z,5.53
2022-11-14T18:37:39.137Z,4.23
2022-11-14T18:40:00.424Z,4.60
2022-11-14T18:42:21.882Z,3.67
2022-11-14T18:44:43.472Z,3.57
2022-11-14T18:47:04.631Z,7.53
2022-11-14T18:49:28.253Z,4.93
2022-11-14T18:51:51.031Z,5.27
2022-11-14T18:54:13.248Z,4.10
2022-11-14T18:56:34.476Z,5.40
2022-11-14T18:58:56.993Z,5.13
2022-11-14T19:01:22.041Z,4.20
2022-11-14T19:03:43.373Z,5.97
2022-11-14T19:06:04.811Z,17.63
2022-11-14T19:08:27.544Z,16.77
2022-11-14T19:10:48.922Z,11.13
2022-11-14T19:13:09.982Z,15.13
2022-11-14T19:15:32.264Z,17.37
2022-11-14T19:17:53.762Z,11.83
2022-11-14T19:20:15.473Z,10.10
2022-11-14T19:22:36.915Z,13.83
2022-11-14T19:24:59.843Z,14.60
2022-11-14T19:27:22.206Z,12.07
2022-11-14T19:29:44.697Z,8.10
2022-11-14T19:32:06.069Z,7.53
2022-11-14T19:34:27.810Z,4.83
2022-11-14T19:37:04.779Z,6.27
2022-11-14T19:39:26.083Z,7.10
2022-11-14T19:41:49.035Z,10.87
2022-11-14T19:44:10.276Z,11.57
2022-11-14T19:46:31.685Z,9.87
2022-11-14T19:48:55.836Z,8.33
2022-11-14T19:51:17.988Z,8.60
2022-11-14T19:53:39.731Z,7.67
2022-11-14T19:56:01.704Z,7.73
2022-11-14T19:58:24.295Z,7.53
2022-11-14T20:00:45.506Z,7.50
2022-11-14T20:03:06.901Z,9.30
2022-11-14T20:05:28.303Z,9.27
2022-11-14T20:07:49.703Z,7.57
2022-11-14T20:10:11.339Z,6.77
2022-11-14T20:12:33.166Z,5.40
2022-11-14T20:14:55.818Z,5.43
2022-11-14T20:17:17.531Z,5.70
2022-11-14T20:19:38.632Z,5.60
2022-11-14T20:21:59.783Z,5.23
2022-11-14T20:24:22.547Z,6.30
2022-11-14T20:26:43.791Z,5.00
2022-11-14T20:29:07.245Z,5.57
2022-11-14T20:31:30.561Z,7.63
2022-11-14T20:33:52.823Z,8.57
2022-11-14T20:36:14.915Z,7.97
2022-11-14T20:38:36.626Z,8.93
2022-11-14T20:40:58.366Z,6.37
2022-11-14T20:43:19.829Z,7.33
2022-11-14T20:45:41.741Z,6.87
2022-11-14T20:48:04.502Z,7.10
2022-11-14T20:50:25.901Z,7.10
2022-11-14T20:52:47.626Z,6.03
2022-11-14T20:55:11.944Z,6.53
2022-11-14T20:57:34.980Z,8.03
2022-11-14T20:59:57.062Z,10.40
2022-11-14T21:02:18.770Z,11.47
2022-11-14T21:04:41.738Z,8.80
2022-11-14T21:07:03.595Z,9.90
2022-11-14T21:09:25.393Z,11.63
2022-11-14T21:11:46.797Z,11.47
2022-11-14T21:14:12.172Z,15.10
2022-11-14T21:16:34.475Z,65.60
2022-11-14T21:18:56.845Z,71.43
2022-11-14T21:21:20.258Z,158.47
2022-11-14T21:23:41.684Z,67.47
2022-11-14T21:26:03.831Z,47.20
2022-11-14T21:28:24.676Z,41.33
2022-11-14T21:30:45.952Z,26.60
2022-11-14T21:33:07.474Z,20.87
2022-11-14T21:35:31.578Z,16.97
2022-11-14T21:37:54.122Z,15.27
2022-11-14T21:40:15.329Z,16.93
2022-11-14T21:42:36.370Z,13.60
2022-11-14T21:44:57.782Z,13.47
2022-11-14T21:47:19.067Z,27.97
2022-11-14T21:49:41.904Z,57.93
2022-11-14T21:52:03.322Z,27.47
2022-11-14T21:54:26.096Z,24.53
2022-11-14T21:56:47.428Z,19.30
2022-11-14T21:59:16.370Z,16.57
2022-11-14T22:01:55.934Z,15.50
2022-11-14T22:04:17.124Z,15.20
2022-11-14T22:06:39.196Z,16.50
2022-11-14T22:09:00.695Z,15.87
2022-11-14T22:11:23.543Z,17.73
2022-11-14T22:13:44.525Z,16.97
2022-11-14T22:16:06.558Z,17.83
2022-11-14T22:18:28.345Z,18.53
2022-11-14T22:20:49.156Z,18.73
2022-11-14T22:23:10.672Z,20.77
2022-11-14T22:25:31.985Z,22.03
2022-11-14T22:27:55.417Z,19.47
2022-11-14T22:30:17.095Z,21.13
2022-11-14T22:32:38.278Z,18.73
2022-11-14T22:34:59.651Z,15.57
2022-11-14T22:37:21.079Z,15.93
2022-11-14T22:39:42.313Z,15.30
2022-11-14T22:42:03.660Z,15.00
2022-11-14T22:44:26.674Z,14.57
2022-11-14T22:46:48.080Z,14.40
2022-11-14T22:49:09.218Z,13.07
2022-11-14T22:51:30.857Z,13.67
2022-11-14T22:53:52.897Z,15.80
2022-11-14T22:56:14.131Z,17.60
2022-11-14T22:58:36.138Z,17.13
2022-11-14T23:00:58.560Z,16.17
2022-11-14T23:03:20.758Z,15.67
2022-11-14T23:05:42.037Z,13.37
2022-11-14T23:08:03.558Z,12.87
2022-11-14T23:10:24.848Z,13.50
2022-11-14T23:12:46.851Z,14.73
2022-11-14T23:15:08.295Z,15.40
2022-11-14T23:17:30.651Z,16.27
2022-11-14T23:19:52.256Z,16.97
2022-11-14T23:22:13.380Z,14.60
2022-11-14T23:24:34.550Z,13.67
2022-11-14T23:26:55.803Z,13.97
2022-11-14T23:29:17.010Z,13.73
2022-11-14T23:31:38.439Z,12.03
2022-11-14T23:34:00.696Z,12.10
2022-11-14T23:36:22.167Z,12.43
2022-11-14T23:38:43.837Z,12.33
2022-11-14T23:41:05.028Z,11.80
2022-11-14T23:43:26.662Z,11.57
2022-11-14T23:45:48.393Z,17.97
2022-11-14T23:48:09.468Z,13.73
2022-11-14T23:50:32.199Z,18.50
2022-11-14T23:52:53.843Z,16.93
2022-11-14T23:55:15.390Z,13.43
2022-11-14T23:57:36.678Z,11.90
2022-11-14T23:59:57.898Z,9.70
